createdAt,value
2022-12-13T00:00:57.679Z,58.2857
2022-12-13T00:01:57.772Z,58.3571
2022-12-13T00:02:57.736Z,58.4286
2022-12-13T00:03:57.802Z,58.5
2022-12-13T00:04:57.792Z,58.6429
2022-12-13T00:05:57.822Z,58.7143
2022-12-13T00:06:57.852Z,58.5714
2022-12-13T00:07:57.934Z,58.5714
2022-12-13T00:08:57.899Z,58.6429
2022-12-13T00:09:57.934Z,58.5714
2022-12-13T00:10:57.980Z,58.5
2022-12-13T00:11:57.993Z,58.3571
2022-12-13T00:12:58.028Z,58.3571
2022-12-13T00:13:58.058Z,58.5
2022-12-13T00:14:58.099Z,58.5714
2022-12-13T00:15:58.130Z,58.6429
2022-12-13T00:16:58.211Z,58.8571
2022-12-13T00:17:58.184Z,58.9286
2022-12-13T00:18:58.228Z,59.0714
2022-12-13T00:19:58.251Z,59.0714
2022-12-13T00:20:58.280Z,59.1429
2022-12-13T00:21:58.317Z,59.3571
2022-12-13T00:22:58.356Z,59.4286
2022-12-13T00:23:58.386Z,59.5714
2022-12-13T00:24:58.409Z,59.7143
2022-12-13T00:25:58.432Z,59.7143
2022-12-13T00:26:58.459Z,59.7143
2022-12-13T00:27:58.483Z,59.7857
2022-12-13T00:28:58.520Z,59.7857
2022-12-13T00:29:58.532Z,59.7857
2022-12-13T00:31:13.558Z,59.9286
2022-12-13T00:32:00.820Z,60
2022-12-13T00:32:58.628Z,59.9286
2022-12-13T00:33:58.653Z,59.8571
2022-12-13T00:34:58.684Z,59.9286
2022-12-13T00:35:58.717Z,59.9286
2022-12-13T00:36:58.747Z,60
2022-12-13T00:37:58.767Z,59.9286
2022-12-13T00:38:58.807Z,59.8571
2022-12-13T00:39:58.843Z,59.8571
2022-12-13T00:40:58.868Z,59.8571
2022-12-13T00:41:58.908Z,59.8571
2022-12-13T00:42:58.933Z,59.9286
2022-12-13T00:43:58.965Z,59.9286
2022-12-13T00:44:58.993Z,59.9286
2022-12-13T00:45:59.080Z,59.9286
2022-12-13T00:46:59.051Z,59.9286
2022-12-13T00:47:59.082Z,60
2022-12-13T00:48:59.123Z,60.0714
2022-12-13T00:49:59.150Z,60.1429
2022-12-13T00:50:59.173Z,60.1429
2022-12-13T00:51:59.203Z,60.1429
2022-12-13T00:52:59.232Z,60.0714
2022-12-13T00:53:59.256Z,60.0714
2022-12-13T00:54:59.282Z,60.0714
2022-12-13T00:55:59.311Z,60.1429
2022-12-13T00:56:59.353Z,60.1429
2022-12-13T00:57:59.383Z,60.1429
2022-12-13T00:58:59.411Z,60.0714
2022-12-13T00:59:59.436Z,60.0714
2022-12-13T01:00:59.505Z,60.1429
2022-12-13T01:01:59.506Z,60.0714
2022-12-13T01:02:59.605Z,60.2143
2022-12-13T01:03:59.561Z,60.2143
2022-12-13T01:04:59.603Z,60.2857
2022-12-13T01:06:15.384Z,60.3571
2022-12-13T01:06:59.663Z,60.2857
2022-12-13T01:07:59.747Z,60.2857
2022-12-13T01:08:59.722Z,60.3571
2022-12-13T01:09:59.756Z,60.2143
2022-12-13T01:10:59.789Z,60.2857
2022-12-13T01:11:59.829Z,60.2143
2022-12-13T01:12:59.857Z,60.2857
2022-12-13T01:13:59.893Z,60.3571
2022-12-13T01:14:59.918Z,60.2857
2022-12-13T01:15:59.945Z,60.1429
2022-12-13T01:17:00.016Z,60.0714
2022-12-13T01:17:59.996Z,60.0714
2022-12-13T01:19:00.043Z,60.1429
2022-12-13T01:20:00.064Z,60.1429
2022-12-13T01:21:00.090Z,60.2143
2022-12-13T01:22:00.170Z,60.2857
2022-12-13T01:23:00.138Z,60.2143
2022-12-13T01:24:00.169Z,60.2143
2022-12-13T01:25:00.212Z,60.0714
2022-12-13T01:26:00.241Z,60.0714
2022-12-13T01:27:00.252Z,60.0714
2022-12-13T01:28:00.286Z,60.1429
2022-12-13T01:29:00.335Z,60.2857
2022-12-13T01:30:00.358Z,60.3571
2022-12-13T01:31:00.415Z,60.3571
2022-12-13T01:32:00.402Z,60.3571
2022-12-13T01:33:00.436Z,60.3571
2022-12-13T01:34:00.482Z,60.4286
2022-12-13T01:35:00.499Z,60.5
2022-12-13T01:36:00.525Z,60.5714
2022-12-13T01:37:00.553Z,60.5
2022-12-13T01:38:00.592Z,60.5
2022-12-13T01:39:00.632Z,60.5714
2022-12-13T01:40:00.646Z,60.6429
2022-12-13T01:41:00.683Z,60.5714
2022-12-13T01:42:00.707Z,60.5714
2022-12-13T01:43:00.733Z,60.6429
2022-12-13T01:44:00.762Z,60.6429
2022-12-13T01:45:00.798Z,60.7143
2022-12-13T01:46:00.857Z,60.7143
2022-12-13T01:47:00.859Z,60.6429
2022-12-13T01:48:00.891Z,60.7143
2022-12-13T01:49:00.912Z,60.7857
2022-12-13T01:50:00.956Z,60.7857
2022-12-13T01:51:00.989Z,60.7857
2022-12-13T01:52:01.017Z,60.8571
2022-12-13T01:53:01.046Z,61
2022-12-13T01:54:01.077Z,61
2022-12-13T01:55:03.305Z,61
2022-12-13T01:56:01.146Z,61
2022-12-13T01:57:01.196Z,60.9286
2022-12-13T01:58:01.195Z,61
2022-12-13T01:59:01.229Z,61.0714
2022-12-13T02:00:01.260Z,61.1429
2022-12-13T02:01:01.346Z,61.1429
2022-12-13T02:02:01.439Z,61.1429
2022-12-13T02:03:01.356Z,61.1429
2022-12-13T02:04:01.391Z,61.1429
2022-12-13T02:05:01.507Z,61.1429
2022-12-13T02:06:01.461Z,61.1429
2022-12-13T02:07:01.515Z,61.2857
2022-12-13T02:08:01.572Z,61.2857
2022-12-13T02:09:01.551Z,61.2857
2022-12-13T02:10:01.583Z,61.2857
2022-12-13T02:11:01.619Z,61.2857
2022-12-13T02:12:01.658Z,61.2857
2022-12-13T02:13:01.671Z,61.2143
2022-12-13T02:14:01.704Z,61.2143
2022-12-13T02:15:01.741Z,61.1429
2022-12-13T02:16:01.819Z,61.2143
2022-12-13T02:17:01.801Z,61.2857
2022-12-13T02:18:01.835Z,61.2857
2022-12-13T02:19:01.867Z,61.2857
2022-12-13T02:20:01.913Z,61.4286
2022-12-13T02:21:01.931Z,61.4286
2022-12-13T02:22:01.967Z,61.4286
2022-12-13T02:23:01.993Z,61.4286
2022-12-13T02:24:08.746Z,61.4286
2022-12-13T02:25:02.074Z,61.4286
2022-12-13T02:26:02.098Z,61.5
2022-12-13T02:27:02.158Z,61.4286
2022-12-13T02:28:02.162Z,61.5
2022-12-13T02:29:02.191Z,61.5
2022-12-13T02:30:02.231Z,61.6429
2022-12-13T02:31:02.291Z,61.5
2022-12-13T02:32:02.298Z,61.5
2022-12-13T02:33:02.322Z,61.5
2022-12-13T02:34:02.344Z,61.5
2022-12-13T02:35:02.376Z,61.5
2022-12-13T02:36:02.395Z,61.5
2022-12-13T02:37:02.433Z,61.3571
2022-12-13T02:38:02.453Z,61.3571
2022-12-13T02:39:02.470Z,61.3571
2022-12-13T02:40:02.499Z,61.2857
2022-12-13T02:41:02.523Z,61.3571
2022-12-13T02:42:02.544Z,61.3571
2022-12-13T02:43:02.578Z,61.3571
2022-12-13T02:44:02.615Z,61.2857
2022-12-13T02:45:02.658Z,61.1429
2022-12-13T02:46:02.739Z,61.0714
2022-12-13T02:47:02.718Z,61.0714
2022-12-13T02:48:02.739Z,61
2022-12-13T02:49:02.769Z,61
2022-12-13T02:50:02.805Z,60.9286
2022-12-13T02:51:02.832Z,60.9286
2022-12-13T02:52:02.856Z,61
2022-12-13T02:53:02.887Z,60.9286
2022-12-13T02:54:02.938Z,60.8571
2022-12-13T02:55:02.940Z,60.9286
2022-12-13T02:56:02.971Z,61
2022-12-13T02:57:03.012Z,60.9286
2022-12-13T02:58:03.041Z,60.8571
2022-12-13T02:59:03.063Z,60.8571
2022-12-13T03:00:03.095Z,60.8571
2022-12-13T03:01:03.124Z,60.7857
2022-12-13T03:02:09.717Z,60.7143
2022-12-13T03:03:03.284Z,60.6429
2022-12-13T03:04:03.217Z,60.6429
2022-12-13T03:05:03.246Z,60.6429
2022-12-13T03:06:03.277Z,60.5714
2022-12-13T03:07:03.311Z,60.5
2022-12-13T03:08:03.359Z,60.5
2022-12-13T03:09:03.383Z,60.5
2022-12-13T03:10:03.407Z,60.3571
2022-12-13T03:11:03.438Z,60.4286
2022-12-13T03:12:03.475Z,60.5
2022-12-13T03:13:03.507Z,60.5
2022-12-13T03:14:03.528Z,60.5
2022-12-13T03:15:03.556Z,60.4286
2022-12-13T03:16:03.658Z,60.2857
2022-12-13T03:17:03.608Z,60.3571
2022-12-13T03:18:03.632Z,60.3571
2022-12-13T03:19:03.659Z,60.3571
2022-12-13T03:20:03.702Z,60.2143
2022-12-13T03:21:03.723Z,60.2143
2022-12-13T03:22:03.761Z,60.2857
2022-12-13T03:23:03.788Z,60.2857
2022-12-13T03:24:03.833Z,60.2857
2022-12-13T03:25:03.853Z,60.2143
2022-12-13T03:26:03.887Z,60.2857
2022-12-13T03:27:03.910Z,60.1429
2022-12-13T03:28:03.940Z,60.0714
2022-12-13T03:29:03.974Z,60.1429
2022-12-13T03:30:04.008Z,60
2022-12-13T03:31:04.061Z,60.0714
2022-12-13T03:32:04.073Z,60.0714
2022-12-13T03:33:04.103Z,60.0714
2022-12-13T03:34:04.126Z,60.1429
2022-12-13T03:35:04.172Z,60.1429
2022-12-13T03:36:04.194Z,60.0714
2022-12-13T03:37:04.223Z,60
2022-12-13T03:38:04.258Z,60.1429
2022-12-13T03:39:04.293Z,60.0714
2022-12-13T03:40:04.316Z,60.0714
2022-12-13T03:41:04.351Z,60
2022-12-13T03:42:04.379Z,59.8571
2022-12-13T03:43:04.414Z,59.9286
2022-12-13T03:44:04.437Z,60
2022-12-13T03:45:04.464Z,59.9286
2022-12-13T03:46:04.523Z,60
2022-12-13T03:47:04.521Z,60.0714
2022-12-13T03:48:04.548Z,60.0714
2022-12-13T03:49:04.588Z,60
2022-12-13T03:50:25.362Z,59.7857
2022-12-13T03:51:04.652Z,59.9286
2022-12-13T03:52:04.671Z,60
2022-12-13T03:53:04.710Z,60.1429
2022-12-13T03:54:04.752Z,60.1429
2022-12-13T03:55:04.783Z,60.1429
2022-12-13T03:56:04.828Z,60.0714
2022-12-13T03:57:04.848Z,60.0714
2022-12-13T03:58:07.900Z,60.0714
2022-12-13T03:59:04.905Z,60.1429
2022-12-13T04:00:05.028Z,60.2143
2022-12-13T04:01:04.963Z,60.1429
2022-12-13T04:02:05.072Z,60.0714
2022-12-13T04:03:05.062Z,60
2022-12-13T04:04:05.056Z,60
2022-12-13T04:05:05.095Z,59.9286
2022-12-13T04:06:05.124Z,60
2022-12-13T04:07:05.149Z,60.0714
2022-12-13T04:08:05.226Z,60
2022-12-13T04:09:05.228Z,59.9286
2022-12-13T04:10:26.201Z,59.8571
2022-12-13T04:11:05.289Z,59.7857
2022-12-13T04:12:05.315Z,59.7857
2022-12-13T04:13:05.356Z,59.7143
2022-12-13T04:14:05.374Z,59.7857
2022-12-13T04:15:05.402Z,59.7857
2022-12-13T04:16:05.458Z,59.7857
2022-12-13T04:17:05.464Z,59.7857
2022-12-13T04:18:05.495Z,59.8571
2022-12-13T04:19:05.523Z,59.7857
2022-12-13T04:20:05.554Z,59.8571
2022-12-13T04:21:05.580Z,59.8571
2022-12-13T04:22:05.615Z,59.9286
2022-12-13T04:23:09.788Z,59.8571
2022-12-13T04:24:05.679Z,59.6429
2022-12-13T04:25:05.718Z,59.5714
2022-12-13T04:26:05.747Z,59.6429
2022-12-13T04:27:05.775Z,59.6429
2022-12-13T04:28:05.802Z,59.7143
2022-12-13T04:29:05.851Z,59.6429
2022-12-13T04:30:05.880Z,59.6429
2022-12-13T04:31:05.959Z,59.7143
2022-12-13T04:32:26.622Z,59.7143
2022-12-13T04:33:05.974Z,59.7143
2022-12-13T04:34:06.004Z,59.7143
2022-12-13T04:35:06.032Z,59.7143
2022-12-13T04:36:06.058Z,59.7857
2022-12-13T04:37:06.096Z,59.6429
2022-12-13T04:38:06.125Z,59.5714
2022-12-13T04:39:22.808Z,59.6429
2022-12-13T04:40:06.172Z,59.5714
2022-12-13T04:41:06.213Z,59.5
2022-12-13T04:42:06.242Z,59.5714
2022-12-13T04:43:06.277Z,59.6429
2022-12-13T04:44:06.301Z,59.7143
2022-12-13T04:45:06.325Z,59.8571
2022-12-13T04:46:06.379Z,59.8571
2022-12-13T04:47:06.396Z,59.7857
2022-12-13T04:48:06.418Z,59.7143
2022-12-13T04:49:06.447Z,59.8571
2022-12-13T04:50:06.481Z,59.8571
2022-12-13T04:51:06.508Z,59.7857
2022-12-13T04:52:06.539Z,59.8571
2022-12-13T04:53:06.567Z,59.8571
2022-12-13T04:54:23.396Z,59.8571
2022-12-13T04:55:06.627Z,59.7857
2022-12-13T04:56:06.652Z,59.8571
2022-12-13T04:57:06.700Z,59.8571
2022-12-13T04:58:06.725Z,59.8571
2022-12-13T04:59:06.765Z,59.7857
2022-12-13T05:00:06.784Z,59.8571
2022-12-13T05:01:06.857Z,59.8571
2022-12-13T05:02:06.940Z,59.9286
2022-12-13T05:03:06.889Z,59.8571
2022-12-13T05:04:06.917Z,59.8571
2022-12-13T05:05:06.942Z,60
2022-12-13T05:06:06.978Z,60.0714
2022-12-13T05:07:07.002Z,60.0714
2022-12-13T05:08:07.062Z,60.1429
2022-12-13T05:09:11.508Z,60.0714
2022-12-13T05:10:07.092Z,60.1429
2022-12-13T05:11:07.120Z,60.1429
2022-12-13T05:12:22.738Z,60.2143
2022-12-13T05:13:07.178Z,60.1429
2022-12-13T05:14:07.219Z,60.0714
2022-12-13T05:15:07.251Z,60.0714
2022-12-13T05:16:07.345Z,60
2022-12-13T05:17:07.311Z,60.0714
2022-12-13T05:18:09.741Z,60.1429
2022-12-13T05:19:07.368Z,60.1429
2022-12-13T05:20:07.392Z,60.0714
2022-12-13T05:21:07.422Z,60
2022-12-13T05:22:07.449Z,60.0714
2022-12-13T05:23:07.488Z,60.0714
2022-12-13T05:24:07.510Z,60.1429
2022-12-13T05:25:07.550Z,60.1429
2022-12-13T05:26:07.582Z,60.2143
2022-12-13T05:27:24.158Z,60.1429
2022-12-13T05:28:26.916Z,60.0714
2022-12-13T05:29:07.682Z,60.0714
2022-12-13T05:30:07.704Z,60
2022-12-13T05:31:23.426Z,60.0714
2022-12-13T05:32:07.815Z,60.0714
2022-12-13T05:33:07.802Z,60.0714
2022-12-13T05:34:07.830Z,60
2022-12-13T05:35:07.882Z,59.9286
2022-12-13T05:36:07.906Z,59.9286
2022-12-13T05:37:07.938Z,59.9286
2022-12-13T05:38:07.969Z,60
2022-12-13T05:39:29.032Z,60.0714
2022-12-13T05:40:08.024Z,60
2022-12-13T05:41:08.063Z,60.1429
2022-12-13T05:42:08.097Z,60
2022-12-13T05:43:21.702Z,60.0714
2022-12-13T05:44:08.165Z,60.1429
2022-12-13T05:45:08.191Z,60
2022-12-13T05:46:08.274Z,60.0714
2022-12-13T05:47:08.254Z,60
2022-12-13T05:48:08.279Z,59.7857
2022-12-13T05:49:08.312Z,59.6429
2022-12-13T05:50:08.351Z,59.7143
2022-12-13T05:51:10.466Z,59.7857
2022-12-13T05:52:08.395Z,59.7143
2022-12-13T05:53:08.420Z,59.7857
2022-12-13T05:54:08.455Z,59.8571
2022-12-13T05:55:08.480Z,59.8571
2022-12-13T05:56:08.513Z,59.9286
2022-12-13T05:57:08.545Z,59.9286
2022-12-13T05:58:13.347Z,59.8571
2022-12-13T05:59:08.605Z,59.8571
2022-12-13T06:00:29.813Z,59.8571
2022-12-13T06:01:08.676Z,59.9286
2022-12-13T06:02:08.813Z,59.8571
2022-12-13T06:03:08.902Z,59.8571
2022-12-13T06:04:08.766Z,59.7857
2022-12-13T06:05:08.802Z,59.9286
2022-12-13T06:06:08.833Z,60
2022-12-13T06:07:08.867Z,60
2022-12-13T06:08:24.561Z,60
2022-12-13T06:09:08.937Z,60
2022-12-13T06:10:10.431Z,60
2022-12-13T06:11:11.304Z,60
2022-12-13T06:12:31.769Z,60.0714
2022-12-13T06:13:21.486Z,60.0714
2022-12-13T06:14:22.894Z,60.1429
2022-12-13T06:15:21.713Z,60.1429
2022-12-13T06:16:09.199Z,60.2143
2022-12-13T06:17:09.235Z,60.2857
2022-12-13T06:18:09.212Z,60.2857
2022-12-13T06:19:09.245Z,60.2857
2022-12-13T06:20:23.344Z,60.2143
2022-12-13T06:21:09.309Z,60.2857
2022-12-13T06:22:09.343Z,60.3571
2022-12-13T06:23:09.376Z,60.2143
2022-12-13T06:24:09.392Z,60.2143
2022-12-13T06:25:09.427Z,60.2857
2022-12-13T06:26:09.463Z,60.1429
2022-12-13T06:27:09.489Z,60.1429
2022-12-13T06:28:09.516Z,60.2143
2022-12-13T06:29:09.552Z,60.2857
2022-12-13T06:30:09.579Z,60.2857
2022-12-13T06:31:09.656Z,60.3571
2022-12-13T06:32:09.634Z,60.2857
2022-12-13T06:33:09.670Z,60.2857
2022-12-13T06:34:14.478Z,60.2143
2022-12-13T06:35:28.191Z,60.2143
2022-12-13T06:36:09.737Z,60.2857
2022-12-13T06:37:09.763Z,60.2857
2022-12-13T06:38:11.761Z,60.3571
2022-12-13T06:39:09.830Z,60.3571
2022-12-13T06:40:09.855Z,60.4286
2022-12-13T06:41:09.889Z,60.5714
2022-12-13T06:42:09.912Z,60.6429
2022-12-13T06:43:09.944Z,60.6429
2022-12-13T06:44:09.978Z,60.6429
2022-12-13T06:45:10.021Z,60.6429
2022-12-13T06:46:10.099Z,60.7143
2022-12-13T06:47:12.423Z,60.6429
2022-12-13T06:48:10.101Z,60.5714
2022-12-13T06:49:10.167Z,60.5714
2022-12-13T06:50:10.157Z,60.5714
2022-12-13T06:51:10.188Z,60.5714
2022-12-13T06:52:10.214Z,60.7143
2022-12-13T06:53:10.251Z,60.7857
2022-12-13T06:54:10.302Z,60.7857
2022-12-13T06:55:10.306Z,60.8571
2022-12-13T06:56:10.349Z,60.9286
2022-12-13T06:57:10.379Z,60.9286
2022-12-13T06:58:10.403Z,60.9286
2022-12-13T06:59:10.433Z,60.7857
2022-12-13T07:00:10.461Z,60.7143
2022-12-13T07:01:14.684Z,60.7143
2022-12-13T07:02:24.309Z,60.7857
2022-12-13T07:03:10.593Z,60.7857
2022-12-13T07:04:29.657Z,60.6429
2022-12-13T07:05:10.615Z,60.6429
2022-12-13T07:06:10.649Z,60.5714
2022-12-13T07:07:10.683Z,60.7143
2022-12-13T07:08:10.816Z,60.7857
2022-12-13T07:09:10.732Z,60.8571
2022-12-13T07:10:12.572Z,60.7857
2022-12-13T07:11:10.791Z,60.7143
2022-12-13T07:12:10.826Z,60.7143
2022-12-13T07:13:10.860Z,60.7143
2022-12-13T07:14:10.904Z,60.5714
2022-12-13T07:15:10.935Z,60.4286
2022-12-13T07:16:11.024Z,60.5
2022-12-13T07:17:11.088Z,60.3571
2022-12-13T07:18:11.026Z,60.5
2022-12-13T07:19:23.109Z,60.4286
2022-12-13T07:20:11.087Z,60.4286
2022-12-13T07:21:21.722Z,60.3571
2022-12-13T07:22:11.145Z,60.3571
2022-12-13T07:23:11.175Z,60.2857
2022-12-13T07:24:11.206Z,60.2857
2022-12-13T07:25:27.615Z,60.2857
2022-12-13T07:26:11.265Z,60.2857
2022-12-13T07:27:11.288Z,60.2857
2022-12-13T07:28:11.324Z,60.2857
2022-12-13T07:29:11.350Z,60.2857
2022-12-13T07:30:11.382Z,60.2143
2022-12-13T07:31:11.443Z,60.2143
2022-12-13T07:32:11.439Z,60.1429
2022-12-13T07:33:11.469Z,60.1429
2022-12-13T07:34:15.439Z,60.2143
2022-12-13T07:35:11.534Z,60.1429
2022-12-13T07:36:11.559Z,60.1429
2022-12-13T07:37:29.260Z,60.0714
2022-12-13T07:38:11.616Z,60.0714
2022-12-13T07:39:11.638Z,59.9286
2022-12-13T07:40:11.676Z,59.9286
2022-12-13T07:41:11.814Z,60
2022-12-13T07:42:11.737Z,59.9286
2022-12-13T07:43:11.761Z,60
2022-12-13T07:44:11.787Z,60
2022-12-13T07:45:11.841Z,60
2022-12-13T07:46:11.908Z,60
2022-12-13T07:47:11.881Z,60
2022-12-13T07:48:11.914Z,60
2022-12-13T07:49:11.940Z,59.8571
2022-12-13T07:50:24.259Z,59.9286
2022-12-13T07:51:12.010Z,59.8571
2022-12-13T07:52:12.036Z,59.7857
2022-12-13T07:53:12.059Z,59.7143
2022-12-13T07:54:12.094Z,59.7143
2022-12-13T07:55:12.128Z,59.7143
2022-12-13T07:56:12.168Z,59.6429
2022-12-13T07:57:12.208Z,59.4286
2022-12-13T07:58:12.226Z,59.5
2022-12-13T07:59:12.259Z,59.5
2022-12-13T08:00:12.287Z,59.4286
2022-12-13T08:01:12.320Z,59.5
2022-12-13T08:02:12.375Z,59.5714
2022-12-13T08:03:24.404Z,59.2857
2022-12-13T08:04:12.404Z,59.3571
2022-12-13T08:05:26.366Z,59.4286
2022-12-13T08:06:12.470Z,59.3571
2022-12-13T08:07:12.502Z,59.4286
2022-12-13T08:08:12.626Z,59.3571
2022-12-13T08:09:12.560Z,59.4286
2022-12-13T08:10:12.585Z,59.4286
2022-12-13T08:11:12.611Z,59.4286
2022-12-13T08:12:12.639Z,59.4286
2022-12-13T08:13:12.682Z,59.2143
2022-12-13T08:14:12.719Z,59.1429
2022-12-13T08:15:14.338Z,59.1429
2022-12-13T08:16:27.657Z,59.1429
2022-12-13T08:17:12.803Z,59.1429
2022-12-13T08:18:12.890Z,59.1429
2022-12-13T08:19:12.918Z,59.0714
2022-12-13T08:20:12.951Z,59
2022-12-13T08:21:51.939Z,59.0714
2022-12-13T08:22:14.450Z,59.0714
2022-12-13T08:23:13.047Z,59
2022-12-13T08:24:15.763Z,59.0714
2022-12-13T08:25:13.099Z,59
2022-12-13T08:26:13.127Z,58.9286
2022-12-13T08:27:13.155Z,58.8571
2022-12-13T08:28:13.190Z,58.7143
2022-12-13T08:29:13.224Z,58.7143
2022-12-13T08:30:17.523Z,58.8571
2022-12-13T08:31:13.328Z,58.8571
2022-12-13T08:32:13.334Z,58.8571
2022-12-13T08:33:13.353Z,58.8571
2022-12-13T08:34:13.386Z,58.7857
2022-12-13T08:35:13.422Z,58.7857
2022-12-13T08:36:13.446Z,58.7857
2022-12-13T08:37:13.469Z,58.6429
2022-12-13T08:38:13.502Z,58.5714
2022-12-13T08:39:13.545Z,58.5714
2022-12-13T08:40:13.567Z,58.6429
2022-12-13T08:41:13.600Z,58.6429
2022-12-13T08:42:16.229Z,58.5
2022-12-13T08:43:13.661Z,58.5
2022-12-13T08:44:13.701Z,58.5714
2022-12-13T08:45:13.735Z,58.6429
2022-12-13T08:46:13.873Z,58.6429
2022-12-13T08:47:22.506Z,58.6429
2022-12-13T08:48:13.837Z,58.6429
2022-12-13T08:49:13.945Z,58.5714
2022-12-13T08:50:13.905Z,58.6429
2022-12-13T08:51:13.928Z,58.5714
2022-12-13T08:52:13.956Z,58.5
2022-12-13T08:53:29.549Z,58.4286
2022-12-13T08:54:14.015Z,58.3571
2022-12-13T08:55:14.048Z,58.4286
2022-12-13T08:56:14.072Z,58.5
2022-12-13T08:57:14.096Z,58.3571
2022-12-13T08:58:14.127Z,58.1429
2022-12-13T08:59:16.027Z,58.2857
2022-12-13T09:00:14.193Z,58.3571
2022-12-13T09:01:14.251Z,58.3571
2022-12-13T09:02:14.291Z,58.3571
2022-12-13T09:03:14.281Z,58.3571
2022-12-13T09:04:14.318Z,58.3571
2022-12-13T09:05:33.539Z,58.1429
2022-12-13T09:06:14.375Z,58.1429
2022-12-13T09:07:14.405Z,58.1429
2022-12-13T09:08:25.180Z,58.0714
2022-12-13T09:09:14.462Z,57.9286
2022-12-13T09:10:26.370Z,58
2022-12-13T09:11:32.924Z,58.0714
2022-12-13T09:12:30.511Z,58
2022-12-13T09:13:31.928Z,58.0714
2022-12-13T09:14:14.615Z,58.1429
2022-12-13T09:15:22.156Z,58.0714
2022-12-13T09:16:23.350Z,57.9286
2022-12-13T09:17:23.736Z,57.8571
2022-12-13T09:18:15.139Z,57.9286
2022-12-13T09:19:25.072Z,57.8571
2022-12-13T09:20:29.049Z,57.6429
2022-12-13T09:21:22.086Z,57.6429
2022-12-13T09:22:15.032Z,57.6429
2022-12-13T09:23:23.357Z,57.7857
2022-12-13T09:24:24.283Z,57.7857
2022-12-13T09:25:15.134Z,57.9286
2022-12-13T09:26:15.199Z,57.7857
2022-12-13T09:27:28.052Z,57.7143
2022-12-13T09:28:15.067Z,57.5714
2022-12-13T09:29:15.807Z,57.5714
2022-12-13T09:30:15.836Z,57.3571
2022-12-13T09:31:15.960Z,57.1429
2022-12-13T09:32:15.903Z,57.2143
2022-12-13T09:33:18.101Z,57.2143
2022-12-13T09:34:15.975Z,57.0714
2022-12-13T09:35:15.986Z,57.0714
2022-12-13T09:36:16.018Z,57
2022-12-13T09:37:23.351Z,57.1429
2022-12-13T09:38:16.096Z,57
2022-12-13T09:39:16.109Z,56.9286
2022-12-13T09:40:26.378Z,57
2022-12-13T09:41:19.428Z,56.9286
2022-12-13T09:42:16.197Z,56.7857
2022-12-13T09:43:22.874Z,56.7857
2022-12-13T09:44:30.913Z,56.7143
2022-12-13T09:45:21.895Z,56.7143
2022-12-13T09:46:22.996Z,56.5714
2022-12-13T09:47:23.454Z,56.5
2022-12-13T09:48:16.392Z,56.5714
2022-12-13T09:49:22.651Z,56.4286
2022-12-13T09:50:16.558Z,56.3571
2022-12-13T09:51:27.138Z,56.2857
2022-12-13T09:52:21.963Z,56.2857
2022-12-13T09:53:21.451Z,56.0714
2022-12-13T09:54:16.585Z,56
2022-12-13T09:55:16.613Z,56.1429
2022-12-13T09:56:16.646Z,56.2143
2022-12-13T09:57:32.795Z,55.6429
2022-12-13T09:58:16.726Z,55.8571
2022-12-13T09:59:16.762Z,56.0714
2022-12-13T10:00:16.786Z,55.7857
2022-12-13T10:01:23.466Z,55.5714
2022-12-13T10:02:16.899Z,55.7857
2022-12-13T10:03:16.864Z,55.7143
2022-12-13T10:04:16.896Z,55.6429
2022-12-13T10:05:22.913Z,55.5714
2022-12-13T10:06:22.569Z,55.5
2022-12-13T10:07:16.988Z,55.2857
2022-12-13T10:08:17.011Z,55.2857
2022-12-13T10:09:17.058Z,55.2143
2022-12-13T10:10:17.079Z,55.2857
2022-12-13T10:11:17.102Z,55.3571
2022-12-13T10:12:17.132Z,55.2857
2022-12-13T10:13:17.193Z,54.9286
2022-12-13T10:14:17.201Z,55.0714
2022-12-13T10:15:22.343Z,55.2143
2022-12-13T10:16:23.842Z,55.0714
2022-12-13T10:17:17.290Z,55.0714
2022-12-13T10:18:17.331Z,55.0714
2022-12-13T10:19:29.317Z,54.8571
2022-12-13T10:20:17.490Z,54.7857
2022-12-13T10:21:17.410Z,55.0714
2022-12-13T10:22:17.447Z,55.1429
2022-12-13T10:23:47.007Z,55
2022-12-13T10:24:30.115Z,54.8571
2022-12-13T10:25:17.520Z,54.9286
2022-12-13T10:26:24.258Z,54.8571
2022-12-13T10:27:17.883Z,54.7857
2022-12-13T10:28:17.911Z,55
2022-12-13T10:29:17.930Z,54.8571
2022-12-13T10:30:20.653Z,54.8571
2022-12-13T10:31:18.033Z,54.9286
2022-12-13T10:32:18.027Z,54.9286
2022-12-13T10:33:18.061Z,54.9286
2022-12-13T10:34:18.090Z,54.7857
2022-12-13T10:35:18.109Z,54.5714
2022-12-13T10:36:22.165Z,54.5
2022-12-13T10:37:18.159Z,54.3571
2022-12-13T10:38:18.185Z,54.4286
2022-12-13T10:39:18.216Z,54.2857
2022-12-13T10:40:32.402Z,54.5
2022-12-13T10:41:18.270Z,54.5
2022-12-13T10:42:22.478Z,54.3571
2022-12-13T10:43:18.320Z,54.5714
2022-12-13T10:44:18.354Z,54.7143
2022-12-13T10:45:23.094Z,54.7143
2022-12-13T10:46:18.434Z,54.6429
2022-12-13T10:47:18.432Z,54.5
2022-12-13T10:48:18.464Z,54.5714
2022-12-13T10:49:18.508Z,54.7857
2022-12-13T10:50:18.527Z,54.7143
2022-12-13T10:51:18.566Z,54.5714
2022-12-13T10:52:18.587Z,54.5714
2022-12-13T10:53:18.618Z,54.3571
2022-12-13T10:54:18.652Z,54.2857
2022-12-13T10:55:23.234Z,54.2857
2022-12-13T10:56:23.658Z,54.2857
2022-12-13T10:57:18.748Z,54.3571
2022-12-13T10:58:18.782Z,54.3571
2022-12-13T10:59:18.804Z,54.3571
2022-12-13T11:00:18.844Z,54.2143
2022-12-13T11:01:18.902Z,54.1429
2022-12-13T11:02:18.954Z,54.2143
2022-12-13T11:03:18.940Z,53.9286
2022-12-13T11:04:23.841Z,54
2022-12-13T11:05:23.452Z,54.0714
2022-12-13T11:06:19.040Z,54.1429
2022-12-13T11:07:19.081Z,54.1429
2022-12-13T11:08:19.107Z,54.4286
2022-12-13T11:09:23.406Z,54.5
2022-12-13T11:10:23.679Z,54.5
2022-12-13T11:11:19.186Z,54.5
2022-12-13T11:12:19.227Z,54.2143
2022-12-13T11:13:19.242Z,54.2857
2022-12-13T11:14:19.280Z,54.2143
2022-12-13T11:15:19.312Z,53.8571
2022-12-13T11:16:19.367Z,53.9286
2022-12-13T11:17:19.373Z,53.7857
2022-12-13T11:18:19.412Z,53.8571
2022-12-13T11:19:19.495Z,54
2022-12-13T11:20:19.469Z,54
2022-12-13T11:21:19.509Z,53.9286
2022-12-13T11:22:19.559Z,53.7143
2022-12-13T11:23:20.331Z,53.5714
2022-12-13T11:24:23.126Z,53.5
2022-12-13T11:25:20.378Z,53.5714
2022-12-13T11:26:24.377Z,53.6429
2022-12-13T11:27:20.433Z,53.5714
2022-12-13T11:28:26.381Z,53.3571
2022-12-13T11:29:20.510Z,53.3571
2022-12-13T11:30:20.538Z,53.1429
2022-12-13T11:31:20.669Z,53.2143
2022-12-13T11:32:22.329Z,53.0714
2022-12-13T11:33:20.623Z,53.0714
2022-12-13T11:34:20.668Z,53.1429
2022-12-13T11:35:20.688Z,53.1429
2022-12-13T11:36:20.712Z,53.0714
2022-12-13T11:37:20.746Z,52.9286
2022-12-13T11:38:20.781Z,53.2143
2022-12-13T11:39:20.808Z,53.3571
2022-12-13T11:40:20.848Z,53.1429
2022-12-13T11:41:31.447Z,53.2143
2022-12-13T11:42:20.909Z,53.1429
2022-12-13T11:43:20.936Z,53.2857
2022-12-13T11:44:20.977Z,53.3571
2022-12-13T11:45:22.584Z,53.4286
2022-12-13T11:46:21.085Z,53.2857
2022-12-13T11:47:21.061Z,53.1429
2022-12-13T11:48:21.097Z,53.2143
2022-12-13T11:49:21.124Z,53.2143
2022-12-13T11:50:34.105Z,53.3571
2022-12-13T11:51:21.192Z,53.2857
2022-12-13T11:52:21.209Z,53.2857
2022-12-13T11:53:21.235Z,53.2857
2022-12-13T11:54:24.032Z,53.2857
2022-12-13T11:55:21.298Z,53.2857
2022-12-13T11:56:21.345Z,53.0714
2022-12-13T11:57:21.357Z,53.2857
2022-12-13T11:58:53.508Z,52.7857
2022-12-13T11:59:26.494Z,52.6429
2022-12-13T12:00:33.858Z,52.7857
2022-12-13T12:01:21.507Z,52.8571
2022-12-13T12:02:21.659Z,52.7857
2022-12-13T12:03:21.650Z,52.9286
2022-12-13T12:04:21.601Z,52.8571
2022-12-13T12:05:21.602Z,52.8571
2022-12-13T12:06:21.632Z,52.5
2022-12-13T12:07:32.490Z,52.7143
2022-12-13T12:08:43.625Z,52.8571
2022-12-13T12:09:21.741Z,52.7857
2022-12-13T12:10:21.776Z,52.9286
2022-12-13T12:11:21.815Z,53.1429
2022-12-13T12:12:21.920Z,53
2022-12-13T12:13:21.873Z,52.9286
2022-12-13T12:14:21.897Z,52.9286
2022-12-13T12:15:27.043Z,53
2022-12-13T12:16:22.005Z,52.9286
2022-12-13T12:17:21.986Z,53.0714
2022-12-13T12:18:22.011Z,52.8571
2022-12-13T12:19:22.033Z,52.5714
2022-12-13T12:20:23.789Z,52.5